createdAt,value
2018-11-27T00:00:38.564Z,13.67
2018-11-27T00:04:51.165Z,10.67
2018-11-27T00:09:03.984Z,11.10
2018-11-27T00:13:18.101Z,10.33
2018-11-27T00:17:31.070Z,11.33
2018-11-27T00:21:44.677Z,10.53
2018-11-27T00:25:57.449Z,10.60
2018-11-27T00:30:13.301Z,10.30
2018-11-27T00:34:26.719Z,8.47
2018-11-27T00:38:41.457Z,8.30
2018-11-27T00:42:54.313Z,6.63
2018-11-27T00:47:08.565Z,4.60
2018-11-27T00:51:21.201Z,2.90
2018-11-27T00:55:33.963Z,2.70
2018-11-27T00:59:46.425Z,3.03
2018-11-27T01:03:59.586Z,2.60
2018-11-27T01:08:12.325Z,2.60
2018-11-27T01:12:24.679Z,3.00
2018-11-27T01:16:36.699Z,3.30
2018-11-27T01:20:49.969Z,2.87
2018-11-27T01:25:02.281Z,3.33
2018-11-27T01:29:15.595Z,2.63
2018-11-27T01:33:28.019Z,3.27
2018-11-27T01:37:42.297Z,2.43
2018-11-27T01:41:54.749Z,2.50
2018-11-27T01:46:07.849Z,2.53
2018-11-27T01:50:20.749Z,2.43
2018-11-27T01:54:33.138Z,1.73
2018-11-27T01:58:45.150Z,1.63
2018-11-27T02:02:57.943Z,1.70
2018-11-27T02:07:10.704Z,1.40
2018-11-27T02:11:22.926Z,1.57
2018-11-27T02:15:35.107Z,1.70
2018-11-27T02:19:47.296Z,1.50
2018-11-27T02:23:59.482Z,1.30
2018-11-27T02:28:11.508Z,0.83
2018-11-27T02:32:23.789Z,1.60
2018-11-27T02:36:36.076Z,1.57
2018-11-27T02:40:48.338Z,1.73
2018-11-27T02:45:00.616Z,1.50
2018-11-27T02:49:12.651Z,1.40
2018-11-27T02:53:24.873Z,1.07
2018-11-27T02:57:37.012Z,1.30
2018-11-27T03:01:49.318Z,1.23
2018-11-27T03:06:02.294Z,1.53
2018-11-27T03:10:15.706Z,1.30
2018-11-27T03:14:27.795Z,1.57
2018-11-27T03:18:40.036Z,1.87
2018-11-27T03:22:52.193Z,1.83
2018-11-27T03:27:04.404Z,1.67
2018-11-27T03:31:16.529Z,1.53
2018-11-27T03:35:28.625Z,1.70
2018-11-27T03:39:40.748Z,1.60
2018-11-27T03:43:52.676Z,1.80
2018-11-27T03:48:04.713Z,2.23
2018-11-27T03:52:16.957Z,2.40
2018-11-27T03:56:29.463Z,2.07
2018-11-27T04:00:41.656Z,1.90
2018-11-27T04:04:53.774Z,1.80
2018-11-27T04:09:07.435Z,2.50
2018-11-27T04:13:19.637Z,2.73
2018-11-27T04:17:31.852Z,2.83
2018-11-27T04:21:44.267Z,1.93
2018-11-27T04:25:56.975Z,2.63
2018-11-27T04:30:10.695Z,2.50
2018-11-27T04:34:22.677Z,3.43
2018-11-27T04:38:34.795Z,2.23
2018-11-27T04:42:46.981Z,3.13
2018-11-27T04:46:58.950Z,3.10
2018-11-27T04:51:11.914Z,3.23
2018-11-27T04:55:24.541Z,3.67
2018-11-27T04:59:36.819Z,4.00
2018-11-27T05:03:49.372Z,4.17
2018-11-27T05:08:01.539Z,3.73
2018-11-27T05:12:14.065Z,3.63
2018-11-27T05:16:26.188Z,4.13
2018-11-27T05:20:38.445Z,3.73
2018-11-27T05:24:50.486Z,3.60
2018-11-27T05:29:02.687Z,4.50
2018-11-27T05:33:15.015Z,4.27
2018-11-27T05:37:27.455Z,3.43
2018-11-27T05:41:39.728Z,4.17
2018-11-27T05:45:51.810Z,4.83
2018-11-27T05:50:03.877Z,3.47
2018-11-27T05:54:16.135Z,4.10
2018-11-27T05:58:28.188Z,4.70
2018-11-27T06:02:40.693Z,5.13
2018-11-27T06:06:52.811Z,4.47
2018-11-27T06:11:05.181Z,4.53
2018-11-27T06:15:18.114Z,4.73
2018-11-27T06:19:30.375Z,4.27
2018-11-27T06:23:42.676Z,5.13
2018-11-27T06:27:56.543Z,5.13
2018-11-27T06:32:08.926Z,5.80
2018-11-27T06:36:21.145Z,5.17
2018-11-27T06:40:33.718Z,4.70
2018-11-27T06:44:45.842Z,5.63
2018-11-27T06:48:57.957Z,4.90
2018-11-27T06:53:10.174Z,4.67
2018-11-27T06:57:22.313Z,4.50
2018-11-27T07:01:34.459Z,5.07
2018-11-27T07:05:46.449Z,5.10
2018-11-27T07:09:58.722Z,4.67
2018-11-27T07:14:11.246Z,5.50
2018-11-27T07:18:23.729Z,5.00
2018-11-27T07:22:35.813Z,5.20
2018-11-27T07:26:52.796Z,5.50
2018-11-27T07:31:00.401Z,5.77
2018-11-27T07:35:14.056Z,5.63
2018-11-27T07:39:26.163Z,5.30
2018-11-27T07:43:38.396Z,5.63
2018-11-27T07:47:50.450Z,5.77
2018-11-27T07:52:03.025Z,5.70
2018-11-27T07:56:15.141Z,5.60
2018-11-27T08:00:28.910Z,5.87
2018-11-27T08:04:40.943Z,5.67
2018-11-27T08:08:53.000Z,4.57
2018-11-27T08:13:05.107Z,5.70
2018-11-27T08:17:17.124Z,5.13
2018-11-27T08:21:29.300Z,5.67
2018-11-27T08:25:41.338Z,6.40
2018-11-27T08:29:53.399Z,5.80
2018-11-27T08:34:05.657Z,6.30
2018-11-27T08:38:17.957Z,6.33
2018-11-27T08:42:31.434Z,6.13
2018-11-27T08:46:43.665Z,6.27
2018-11-27T08:50:55.995Z,5.73
2018-11-27T08:55:09.864Z,6.70
2018-11-27T08:59:21.930Z,6.13
2018-11-27T09:03:34.160Z,6.23
2018-11-27T09:07:46.686Z,6.87
2018-11-27T09:11:58.847Z,5.93
2018-11-27T09:16:10.957Z,6.10
2018-11-27T09:20:23.046Z,5.50
2018-11-27T09:24:35.126Z,6.37
2018-11-27T09:28:47.202Z,6.90
2018-11-27T09:32:59.679Z,6.87
2018-11-27T09:37:12.283Z,5.70
2018-11-27T09:41:24.364Z,5.80
2018-11-27T09:45:36.398Z,6.00
2018-11-27T09:49:48.515Z,6.33
2018-11-27T09:54:00.519Z,5.70
2018-11-27T09:58:12.744Z,6.60
2018-11-27T10:02:24.895Z,5.80
2018-11-27T10:06:37.005Z,5.67
2018-11-27T10:10:49.201Z,5.60
2018-11-27T10:15:01.430Z,5.27
2018-11-27T10:19:13.639Z,5.90
2018-11-27T10:23:25.834Z,6.00
2018-11-27T10:27:38.077Z,6.40
2018-11-27T10:31:50.159Z,5.70
2018-11-27T10:36:02.453Z,6.37
2018-11-27T10:40:14.783Z,6.30
2018-11-27T10:44:26.998Z,5.97
2018-11-27T10:48:39.228Z,6.70
2018-11-27T10:52:52.345Z,6.03
2018-11-27T10:57:04.223Z,6.63
2018-11-27T11:01:20.943Z,6.53
2018-11-27T11:05:33.972Z,6.47
2018-11-27T11:09:46.306Z,6.33
2018-11-27T11:13:58.623Z,5.97
2018-11-27T11:18:10.829Z,6.03
2018-11-27T11:22:23.151Z,6.40
2018-11-27T11:26:35.378Z,5.90
2018-11-27T11:30:47.532Z,6.67
2018-11-27T11:34:59.592Z,5.73
2018-11-27T11:39:12.353Z,6.97
2018-11-27T11:43:24.401Z,5.83
2018-11-27T11:47:36.467Z,5.73
2018-11-27T11:51:48.578Z,6.63
2018-11-27T11:56:00.723Z,6.70
2018-11-27T12:00:15.972Z,6.43
2018-11-27T12:04:28.203Z,7.03
2018-11-27T12:08:40.574Z,7.33
2018-11-27T12:12:52.852Z,7.47
2018-11-27T12:17:05.387Z,6.37
2018-11-27T12:21:17.510Z,7.50
2018-11-27T12:25:29.564Z,7.13
2018-11-27T12:29:41.639Z,7.43
2018-11-27T12:33:53.694Z,6.67
2018-11-27T12:38:05.985Z,8.20
2018-11-27T12:42:18.216Z,7.57
2018-11-27T12:46:30.356Z,7.00
2018-11-27T12:50:47.145Z,6.70
2018-11-27T12:54:59.140Z,6.57
2018-11-27T12:59:11.553Z,8.10
2018-11-27T13:03:23.776Z,7.70
2018-11-27T13:07:36.009Z,7.23
2018-11-27T13:11:48.491Z,7.73
2018-11-27T13:16:00.615Z,8.27
2018-11-27T13:20:15.020Z,8.20
2018-11-27T13:24:26.981Z,7.60
2018-11-27T13:28:39.035Z,7.97
2018-11-27T13:32:53.825Z,9.53
2018-11-27T13:37:06.162Z,9.90
2018-11-27T13:41:18.524Z,10.17
2018-11-27T13:45:30.622Z,8.43
2018-11-27T13:49:42.696Z,10.00
2018-11-27T13:53:54.935Z,9.43
2018-11-27T13:58:07.133Z,10.17
2018-11-27T14:02:19.351Z,9.57
2018-11-27T14:06:31.455Z,10.87
2018-11-27T14:10:43.819Z,9.27
2018-11-27T14:14:55.815Z,10.73
2018-11-27T14:19:08.044Z,8.80
2018-11-27T14:23:20.144Z,8.80
2018-11-27T14:27:32.321Z,9.50
2018-11-27T14:31:44.508Z,10.40
2018-11-27T14:35:56.718Z,9.00
2018-11-27T14:40:13.647Z,9.43
2018-11-27T14:44:25.899Z,9.20
2018-11-27T14:48:37.910Z,10.10
2018-11-27T14:52:51.297Z,9.27
2018-11-27T14:57:03.507Z,8.97
2018-11-27T15:01:15.694Z,8.87
2018-11-27T15:05:33.539Z,8.90
2018-11-27T15:09:45.439Z,8.43
2018-11-27T15:13:57.520Z,8.50
2018-11-27T15:26:40.822Z,8.23
2018-11-27T15:30:53.285Z,9.93
2018-11-27T15:35:05.437Z,9.57
2018-11-27T15:39:17.589Z,10.13
2018-11-27T15:43:29.799Z,10.57
2018-11-27T15:47:42.020Z,8.70
2018-11-27T15:51:54.124Z,9.90
2018-11-27T15:56:06.237Z,7.90
2018-11-27T16:00:19.500Z,7.80
2018-11-27T16:04:31.761Z,7.93
2018-11-27T16:08:43.992Z,8.20
2018-11-27T16:12:56.221Z,8.27
2018-11-27T16:17:08.889Z,9.40
2018-11-27T16:21:21.043Z,10.10
2018-11-27T16:25:32.919Z,9.47
2018-11-27T16:29:44.993Z,10.87
2018-11-27T16:33:57.047Z,11.30
2018-11-27T16:38:09.513Z,10.50
2018-11-27T16:42:21.607Z,11.90
2018-11-27T16:46:33.618Z,11.43
2018-11-27T16:50:45.691Z,12.10
2018-11-27T16:54:57.795Z,11.97
2018-11-27T16:59:09.997Z,12.07
2018-11-27T17:03:23.410Z,10.53
2018-11-27T17:07:35.762Z,11.83
2018-11-27T17:11:47.978Z,11.10
2018-11-27T17:16:00.084Z,11.73
2018-11-27T17:20:21.469Z,12.63
2018-11-27T17:24:33.557Z,11.73
2018-11-27T17:28:45.730Z,13.70
2018-11-27T17:32:59.210Z,12.87
2018-11-27T17:37:10.734Z,11.67
2018-11-27T17:41:22.907Z,11.80
2018-11-27T17:45:35.037Z,12.03
2018-11-27T17:49:47.105Z,11.90
2018-11-27T17:53:59.144Z,11.47
2018-11-27T17:58:11.288Z,12.50
2018-11-27T18:02:23.596Z,10.70
2018-11-27T18:06:35.707Z,11.47
2018-11-27T18:10:48.022Z,11.93
2018-11-27T18:15:00.231Z,10.97
2018-11-27T18:19:12.445Z,11.30
2018-11-27T18:23:24.767Z,11.20
2018-11-27T18:27:36.868Z,11.17
2018-11-27T18:31:49.085Z,12.03
2018-11-27T18:36:01.238Z,10.93
2018-11-27T18:40:14.784Z,11.03
2018-11-27T18:44:26.944Z,11.33
2018-11-27T18:48:39.139Z,11.30
2018-11-27T18:52:51.480Z,11.07
2018-11-27T18:57:03.677Z,12.60
2018-11-27T19:01:15.891Z,11.03
2018-11-27T19:05:28.026Z,10.60
2018-11-27T19:09:40.091Z,10.77
2018-11-27T19:13:52.375Z,10.80
2018-11-27T19:19:38.388Z,10.80
2018-11-27T19:23:50.569Z,11.27
2018-11-27T19:28:02.657Z,11.17
2018-11-27T19:32:14.987Z,11.10
2018-11-27T19:36:27.011Z,11.07
2018-11-27T19:40:39.013Z,11.43
2018-11-27T19:44:51.076Z,10.93
2018-11-27T19:49:03.191Z,12.67
2018-11-27T19:53:16.754Z,11.87
2018-11-27T19:57:29.041Z,11.37
2018-11-27T20:01:41.298Z,10.83
2018-11-27T20:05:53.557Z,10.77
2018-11-27T20:10:06.302Z,10.90
2018-11-27T20:14:18.341Z,11.93
2018-11-27T20:18:30.324Z,10.30
2018-11-27T20:22:42.528Z,11.37
2018-11-27T20:26:54.621Z,11.17
2018-11-27T20:31:06.965Z,11.80
2018-11-27T20:35:18.990Z,10.50
2018-11-27T20:39:31.052Z,10.77
2018-11-27T20:43:43.217Z,9.23
2018-11-27T20:47:58.530Z,11.07
2018-11-27T20:52:10.982Z,9.67
2018-11-27T20:56:23.018Z,9.90
2018-11-27T21:00:38.522Z,10.27
2018-11-27T21:04:50.633Z,10.23
2018-11-27T21:09:02.841Z,9.70
2018-11-27T21:13:15.353Z,9.20
2018-11-27T21:17:27.442Z,9.17
2018-11-27T21:21:39.761Z,8.70
2018-11-27T21:25:56.384Z,10.53
2018-11-27T21:30:04.019Z,9.53
2018-11-27T21:34:16.094Z,9.80
2018-11-27T21:38:28.148Z,8.80
2018-11-27T21:42:40.291Z,10.60
2018-11-27T21:46:52.345Z,10.37
2018-11-27T21:51:04.571Z,8.63
2018-11-27T21:55:17.117Z,9.70
2018-11-27T21:59:29.135Z,9.13
2018-11-27T22:03:41.267Z,8.63
2018-11-27T22:07:53.497Z,8.60
2018-11-27T22:12:05.881Z,8.10
2018-11-27T22:16:18.103Z,8.77
2018-11-27T22:20:30.454Z,7.47
2018-11-27T22:24:42.556Z,7.93
2018-11-27T22:28:54.653Z,8.20
2018-11-27T22:33:07.601Z,8.43
2018-11-27T22:37:19.988Z,7.50
2018-11-27T22:41:32.296Z,7.00
2018-11-27T22:45:44.611Z,7.13
2018-11-27T22:49:56.949Z,7.63
2018-11-27T22:54:09.045Z,8.03
2018-11-27T22:58:21.242Z,7.57
2018-11-27T23:02:33.587Z,7.47
2018-11-27T23:06:45.661Z,8.80
2018-11-27T23:10:58.039Z,8.10
2018-11-27T23:15:13.036Z,8.17
2018-11-27T23:19:24.836Z,7.83
2018-11-27T23:23:36.918Z,8.20
2018-11-27T23:27:48.951Z,8.23
2018-11-27T23:32:01.118Z,8.90
2018-11-27T23:36:13.344Z,9.93
2018-11-27T23:40:25.520Z,10.13
2018-11-27T23:44:37.609Z,10.80
2018-11-27T23:48:49.861Z,10.13
2018-11-27T23:53:02.053Z,9.57
2018-11-27T23:57:14.152Z,11.03
